• Join FlightAware (Why Join?)
  • Login
  • US Flag 
08:44AM EDT


 

Airport Tracker/Info


-or-


 

Live Flight TrackerFlight Track Log ✈ CNS426 ✈ 15-Jul-2013 ✈ KBWI - KHTS

Flight Track Log - Related Links

Times and Time Zones

All times are in EDT time to prevent confusion due to time zone crossing. See the CNS426 flight status page for this flight to view local times or setup timezone preferences in your user account.

Time Position Orientation Groundspeed Altitude Reporting Facility
EDT Latitude Longitude Course Direction KTS MPH feet Rate Location/Type
01:03PM 39.2333 -76.7000 322° Northwest 143 165 2,400  Level Potomac TRACON
01:03PM 39.2500 -76.7333 303° West 156 180 3,900 1,740 Climbing Potomac TRACON
01:04PM 39.2833 -76.7667 322° Northwest 133 153 5,800 1,440 Climbing Potomac TRACON
01:05PM 39.3000 -76.8167 293° West 172 198 6,800 1,020 Climbing Potomac TRACON
01:06PM 39.3000 -76.8833 270° West 175 201 7,900 540 Climbing Potomac TRACON
01:07PM 39.3167 -76.9667 285° West 213 245 8,000  Climbing Potomac TRACON
01:09PM 39.3167 -77.0333 270° West 221 254 8,000  Level Potomac TRACON
01:09PM 39.3167 -77.1167 270° West 224 258 8,000  Level Potomac TRACON
01:10PM 39.3333 -77.1833 288° West 217 250 8,000 120 Level Potomac TRACON
01:11PM 39.3333 -77.2667 270° West 221 254 8,300 720 Climbing Potomac TRACON
01:12PM 39.3333 -77.3333 270° West 200 230 9,500 1,080 Climbing Potomac TRACON
01:13PM 39.3333 -77.4167 270° West 196 226 10,500 900 Climbing Potomac TRACON
01:15PM 39.3167 -77.4833 252° West 205 236 11,500 900 Climbing Potomac TRACON
01:15PM 39.3000 -77.5500 252° West 209 241 12,300 960 Climbing Potomac TRACON
01:16PM 39.3000 -77.6333 270° West 205 236 13,400 960 Climbing Potomac TRACON
01:17PM 39.2833 -77.6833 247° West 202 232 14,200 900 Climbing Potomac TRACON
01:18PM 39.2667 -77.7667 256° West 211 243 15,200 900 Climbing Potomac TRACON
01:19PM 39.2617 -77.8164 263° West 215 247 15,800 360 Climbing Washington Center
01:21PM 39.2333 -78.0000 259° West 257 296 16,400 180 Climbing Potomac TRACON
01:22PM 39.2147 -78.0964 256° West 254 292 16,500 60 Climbing Washington Center
01:23PM 39.2003 -78.1817 258° West 254 292 16,600  Climbing Washington Center
01:24PM 39.1858 -78.2667 258° West 254 292 16,600  Level Washington Center
01:25PM 39.1714 -78.3519 258° West 254 292 16,600  Level Washington Center
01:26PM 39.1569 -78.4344 257° West 248 285 16,600  Level Washington Center
01:27PM 39.1425 -78.5222 258° West 248 285 16,600  Level Washington Center
01:28PM 39.1278 -78.6072 257° West 248 285 16,600  Level Washington Center
01:29PM 39.1133 -78.6922 258° West 248 285 16,600  Level Washington Center
01:30PM 39.0983 -78.7772 257° West 248 285 16,600  Level Washington Center
01:31PM 39.0836 -78.8619 257° West 248 285 16,600  Level Washington Center
01:32PM 39.0689 -78.9469 257° West 248 285 16,600 -60 Level Washington Center
01:33PM 39.0539 -79.0344 258° West 248 285 16,500  Descending Washington Center
01:34PM 39.0389 -79.1219 258° West 248 285 16,600  Climbing Washington Center
01:35PM 39.0239 -79.2067 257° West 248 285 16,600  Level Washington Center
01:36PM 39.0067 -79.2914 255° West 248 285 16,600  Level Washington Center
01:37PM 38.9914 -79.3814 258° West 253 291 16,600  Level Washington Center
01:38PM 38.9761 -79.4661 257° West 253 291 16,600  Level Washington Center
01:39PM 38.9586 -79.5558 256° West 258 297 16,600  Level Washington Center
01:40PM 38.9472 -79.6433 261° West 269 310 16,600  Level Washington Center
01:41PM 38.9275 -79.7383 255° West 269 310 16,600  Level Washington Center
01:42PM 38.9117 -79.8283 257° West 264 304 16,600 -60 Level Washington Center
01:44PM 38.8947 -79.9058 254° West 252 290 16,500 -60 Descending Indianapolis Center
01:45PM 38.8750 -80.0067 256° West 251 289 16,500  Level Indianapolis Center
01:46PM 38.8606 -80.0847 257° West 250 288 16,500  Level Indianapolis Center
01:47PM 38.8453 -80.1711 257° West 248 285 16,500  Level Indianapolis Center
01:48PM 38.8253 -80.2747 256° West 248 285 16,500  Level Indianapolis Center
01:49PM 38.8083 -80.3614 256° West 249 287 16,500  Level Indianapolis Center
01:50PM 38.7928 -80.4478 257° West 250 288 16,500  Level Indianapolis Center
01:51PM 38.7756 -80.5336 256° West 249 287 16,500  Level Indianapolis Center
01:52PM 38.7600 -80.6208 257° West 252 290 16,500  Level Indianapolis Center
01:53PM 38.7433 -80.7072 256° West 251 289 16,500  Level Indianapolis Center
01:54PM 38.7267 -80.7947 256° West 253 291 16,500  Level Indianapolis Center
01:55PM 38.7094 -80.8808 256° West 249 287 16,500  Level Indianapolis Center
01:56PM 38.6886 -80.9858 256° West 253 291 16,500  Level Indianapolis Center
01:57PM 38.6722 -81.0728 256° West 252 290 16,500  Level Indianapolis Center
01:58PM 38.6550 -81.1592 256° West 251 289 16,500  Level Indianapolis Center
01:59PM 38.6372 -81.2472 256° West 251 289 16,500  Level Indianapolis Center
02:00PM 38.6208 -81.3342 256° West 254 292 16,500  Level Indianapolis Center
02:01PM 38.6028 -81.4214 255° West 252 290 16,500  Level Indianapolis Center
02:02PM 38.5850 -81.5097 256° West 252 290 16,500  Level Indianapolis Center
02:03PM 38.5672 -81.5978 256° West 252 290 16,500  Level Indianapolis Center
02:04PM 38.5500 -81.6853 256° West 253 291 16,500 -840 Level Indianapolis Center
02:05PM 38.5308 -81.7806 256° West 273 314 14,800 -1,800 Descending Indianapolis Center
02:06PM 38.5100 -81.8806 255° West 291 335 12,800 -2,040 Descending Indianapolis Center
02:07PM 38.4881 -81.9919 256° West 271 312 10,600 -1,860 Descending Indianapolis Center
02:08PM 38.4722 -82.0842 258° West 266 306 9,100 -1,620 Descending Indianapolis Center
02:09PM 38.4606 -82.1758 261° West 263 303 7,400 -1,560 Descending Indianapolis Center
02:10PM 38.4531 -82.2656 264° West 256 295 5,900 -1,260 Descending Indianapolis Center
02:11PM 38.4431 -82.3542 262° West 253 291 4,800 -1,080 Descending Indianapolis Center
02:12PM 38.4317 -82.4350 260° West 240 276 3,700 -1,080 Descending Indianapolis Center
02:13PM 38.4200 -82.5119 259° West 213 245 2,700 -660 Descending Indianapolis Center
02:14PM 38.4172 -82.5622 266° West 157 181 2,400 -540 Descending Indianapolis Center
02:15PM 38.3942 -82.5975 230° Southwest 140 161 1,600 -540 Descending Indianapolis Center
02:17PM 38.3697 -82.5742 143° Southeast 127 146 1,400 -240 Descending Indianapolis Center
02:18PM 38.3685 -82.5604 90° East  Level Estimated